Time;durP1;ratioP1;P1;durP2;ratioP2;P2;SDS_P1;SDS_P2;PMS_P1;PMS_P2;Temp;Humidity;BMP_temperature;BMP_pressure;BME280_temperature;BME280_humidity;BME280_pressure;Samples;Min_cycle;Max_cycle;Signal;HPM_P1;HPM_P2
2022/11/11 00:00:18;;;;;;;74.35;13.07;;;7.80;1.00;;;;;;5071542;28;20205;-74
2022/11/11 00:02:45;;;;;;;72.95;11.95;;;7.90;1.00;;;;;;5072192;28;20209;-74
2022/11/11 00:05:12;;;;;;;68.88;12.23;;;8.10;1.00;;;;;;5072230;28;20682;-74
2022/11/11 00:07:40;;;;;;;70.18;11.40;;;8.10;1.00;;;;;;5071979;28;20312;-74
2022/11/11 00:10:08;;;;;;;67.07;11.70;;;8.10;1.00;;;;;;5071234;28;20646;-74
2022/11/11 00:12:35;;;;;;;70.15;11.93;;;8.20;1.00;;;;;;5072050;28;20607;-75
2022/11/11 00:15:02;;;;;;;67.00;11.20;;;8.00;1.00;;;;;;5072054;28;20600;-74
2022/11/11 00:25:42;;;;;;;67.63;11.55;;;7.30;1.00;;;;;;5071948;28;20616;-74
2022/11/11 00:28:09;;;;;;;67.75;11.15;;;7.20;1.00;;;;;;5071765;28;20225;-74
2022/11/11 00:30:36;;;;;;;69.13;10.93;;;6.80;1.00;;;;;;5071082;28;20205;-74
2022/11/11 00:33:02;;;;;;;70.05;12.27;;;6.50;1.00;;;;;;5071608;28;20244;-74
2022/11/11 00:38:44;;;;;;;74.13;13.93;;;6.40;1.00;;;;;;5071673;28;20325;-73
2022/11/11 00:41:03;;;;;;;76.57;12.68;;;6.40;1.00;;;;;;5071591;28;20204;-74
2022/11/11 00:43:29;;;;;;;70.10;13.27;;;6.20;1.00;;;;;;5071190;28;20205;-74
2022/11/11 00:50:57;;;;;;;85.10;14.48;;;6.30;1.00;;;;;;5071801;28;20211;-73
2022/11/11 00:51:28;;;;;;;82.68;13.93;;;6.20;1.00;;;;;;5071507;28;20719;-74
2022/11/11 00:53:56;;;;;;;93.28;14.02;;;6.20;1.00;;;;;;5071336;28;20709;-73
2022/11/11 00:56:24;;;;;;;71.55;12.10;;;6.30;1.00;;;;;;5071706;28;20209;-74
2022/11/11 00:58:51;;;;;;;68.30;11.88;;;6.60;1.00;;;;;;5071021;28;20221;-73
2022/11/11 01:01:18;;;;;;;119.80;14.98;;;6.80;1.00;;;;;;5071631;28;20241;-74
2022/11/11 01:03:45;;;;;;;105.32;16.40;;;7.00;1.00;;;;;;5071567;28;20202;-74
2022/11/11 01:06:13;;;;;;;82.57;12.52;;;6.90;1.00;;;;;;5071337;28;20215;-74
2022/11/11 01:08:41;;;;;;;83.78;13.88;;;7.00;1.00;;;;;;5070821;28;20221;-73
2022/11/11 01:11:14;;;;;;;90.18;14.63;;;7.10;1.00;;;;;;5071524;28;20240;-73
2022/11/11 01:13:41;;;;;;;105.15;14.30;;;6.90;1.00;;;;;;5071330;28;20228;-74
2022/11/11 01:16:11;;;;;;;96.72;13.68;;;6.40;1.00;;;;;;5071453;28;20259;-73
2022/11/11 01:18:38;;;;;;;77.32;13.50;;;6.60;1.00;;;;;;5070394;28;20225;-74
2022/11/11 01:21:07;;;;;;;91.47;13.98;;;6.40;1.00;;;;;;5071574;28;20205;-73
2022/11/11 01:23:39;;;;;;;160.75;18.38;;;6.40;1.00;;;;;;5071152;28;20589;-73
2022/11/11 01:26:09;;;;;;;129.75;15.85;;;6.10;1.00;;;;;;5071401;28;20209;-73
2022/11/11 01:28:37;;;;;;;148.05;17.00;;;5.90;1.00;;;;;;5070689;28;20225;-73
2022/11/11 01:31:06;;;;;;;176.40;17.92;;;5.60;1.00;;;;;;5071070;28;20201;-73
2022/11/11 01:33:33;;;;;;;149.00;18.25;;;5.40;1.00;;;;;;5071378;28;20225;-73
2022/11/11 01:36:08;;;;;;;124.13;16.77;;;5.60;1.00;;;;;;5071084;28;20209;-73
2022/11/11 01:38:35;;;;;;;83.10;13.55;;;6.10;1.00;;;;;;5070469;28;20224;-73
2022/11/11 01:41:31;;;;;;;132.77;17.35;;;6.20;1.00;;;;;;5070991;28;20678;-73
2022/11/11 01:43:52;;;;;;;123.78;17.58;;;6.50;1.00;;;;;;5071023;28;20270;-73
2022/11/11 01:46:27;;;;;;;113.75;15.40;;;6.30;1.00;;;;;;5071202;28;20201;-73
2022/11/11 01:51:57;;;;;;;148.77;19.55;;;6.20;1.00;;;;;;5008831;28;20199;-73
2022/11/11 01:54:29;;;;;;;153.98;19.98;;;5.90;1.00;;;;;;5057591;28;20548;-73
2022/11/11 01:57:00;;;;;;;147.05;18.85;;;5.70;1.00;;;;;;5074397;28;20699;-73
2022/11/11 01:59:30;;;;;;;93.25;13.80;;;5.40;1.00;;;;;;5073729;28;20209;-73
2022/11/11 02:01:57;;;;;;;142.98;17.52;;;5.50;1.00;;;;;;5074526;28;20266;-73
2022/11/11 02:07:10;;;;;;;129.25;16.30;;;6.00;1.00;;;;;;5074374;28;20204;-73
2022/11/11 02:09:41;;;;;;;68.03;11.93;;;6.20;1.00;;;;;;5073580;28;20212;-74
2022/11/11 02:15:00;;;;;;;67.70;10.90;;;6.90;1.00;;;;;;5074160;28;20232;-74
2022/11/11 02:17:29;;;;;;;69.75;12.07;;;7.10;1.00;;;;;;5068295;28;20666;-73
2022/11/11 02:20:00;;;;;;;73.35;11.75;;;7.40;1.00;;;;;;5073416;28;20218;-74
2022/11/11 02:22:35;;;;;;;73.45;11.77;;;7.60;1.00;;;;;;5073850;28;20739;-73
2022/11/11 02:25:07;;;;;;;69.63;12.30;;;7.50;1.00;;;;;;5074097;28;20196;-74
2022/11/11 02:27:38;;;;;;;71.05;11.95;;;7.60;1.00;;;;;;5073958;28;20225;-73
2022/11/11 02:30:14;;;;;;;68.68;11.52;;;7.60;1.00;;;;;;5073317;28;20205;-73
2022/11/11 02:32:41;;;;;;;66.75;11.13;;;7.70;1.00;;;;;;5073939;28;20292;-74
2022/11/11 02:35:13;;;;;;;97.40;13.48;;;7.80;1.00;;;;;;5073713;28;20292;-74
2022/11/11 02:37:41;;;;;;;94.97;14.43;;;7.80;1.00;;;;;;5073894;28;20227;-73
2022/11/11 02:40:12;;;;;;;82.45;12.40;;;7.90;1.00;;;;;;5073006;28;20205;-73
2022/11/11 02:42:38;;;;;;;101.63;13.30;;;7.80;1.00;;;;;;5073814;28;20215;-73
2022/11/11 02:45:06;;;;;;;106.10;15.30;;;7.70;1.00;;;;;;5073629;28;20198;-74
2022/11/11 02:47:32;;;;;;;116.93;16.05;;;7.10;1.00;;;;;;5073377;28;20467;-73
2022/11/11 02:49:59;;;;;;;109.45;13.95;;;6.70;1.00;;;;;;5072750;28;20678;-74
2022/11/11 02:52:26;;;;;;;68.53;10.95;;;6.30;1.00;;;;;;5073633;28;20573;-74
2022/11/11 02:54:53;;;;;;;81.93;13.80;;;6.70;1.00;;;;;;5073547;28;20601;-73
2022/11/11 02:57:21;;;;;;;75.15;14.20;;;6.80;1.00;;;;;;5073409;28;20229;-74
2022/11/11 02:59:48;;;;;;;68.88;12.20;;;6.40;1.00;;;;;;5072494;28;20208;-73
2022/11/11 03:02:15;;;;;;;74.75;12.10;;;6.20;1.00;;;;;;5073591;28;20589;-74
2022/11/11 03:04:42;;;;;;;124.68;13.80;;;6.00;1.00;;;;;;5073404;28;20201;-73
2022/11/11 03:07:09;;;;;;;98.10;13.52;;;5.50;1.00;;;;;;5072856;28;20201;-73
2022/11/11 03:09:36;;;;;;;117.15;14.13;;;5.40;1.00;;;;;;5072490;28;20296;-74
2022/11/11 03:12:02;;;;;;;132.75;17.23;;;5.30;1.00;;;;;;5073202;28;20669;-74
2022/11/11 03:14:31;;;;;;;144.60;20.00;;;5.30;1.00;;;;;;5072846;28;20225;-74
2022/11/11 03:19:42;;;;;;;96.07;14.40;;;5.10;1.00;;;;;;5072336;28;20528;-74
2022/11/11 03:22:08;;;;;;;144.20;17.10;;;5.20;1.00;;;;;;5072646;28;20215;-74
2022/11/11 03:27:18;;;;;;;82.18;13.93;;;5.20;1.00;;;;;;5072805;28;20524;-74
2022/11/11 03:29:47;;;;;;;107.38;16.60;;;5.30;1.00;;;;;;5071935;28;20210;-74
2022/11/11 03:32:13;;;;;;;83.18;14.82;;;5.00;1.00;;;;;;5072883;28;20201;-74
2022/11/11 03:34:40;;;;;;;76.93;12.50;;;5.20;1.00;;;;;;5072692;28;20229;-74
2022/11/11 03:39:52;;;;;;;109.68;15.07;;;5.70;1.00;;;;;;5071949;28;20212;-75
2022/11/11 03:42:19;;;;;;;100.63;15.40;;;5.60;1.00;;;;;;5072675;28;20209;-74
2022/11/11 03:44:47;;;;;;;143.50;18.38;;;5.40;1.00;;;;;;5072643;28;20203;-74
2022/11/11 03:47:15;;;;;;;136.07;17.55;;;5.60;1.00;;;;;;5072426;28;20296;-74
2022/11/11 03:49:44;;;;;;;89.57;14.57;;;5.40;1.00;;;;;;5071653;28;20211;-74
2022/11/11 03:52:11;;;;;;;112.20;15.63;;;5.20;1.00;;;;;;5072253;28;20211;-73
2022/11/11 03:54:38;;;;;;;69.60;12.90;;;5.40;1.00;;;;;;5072396;28;20233;-74
2022/11/11 03:59:51;;;;;;;73.05;13.13;;;5.80;1.00;;;;;;5071523;28;20681;-74
2022/11/11 04:10:31;;;;;;;67.80;10.98;;;6.70;1.00;;;;;;5071428;28;20334;-74
2022/11/11 04:23:57;;;;;;;66.97;9.93;;;7.00;1.00;;;;;;5071944;28;20308;-74
2022/11/11 04:26:23;;;;;;;65.78;10.75;;;7.00;1.00;;;;;;5071954;28;20216;-74
2022/11/11 04:31:35;;;;;;;69.60;11.52;;;6.70;1.00;;;;;;5071775;28;20208;-73
2022/11/11 04:34:01;;;;;;;69.22;11.30;;;6.10;1.00;;;;;;5071922;28;20231;-73
2022/11/11 04:36:28;;;;;;;65.57;10.43;;;6.20;1.00;;;;;;5071913;28;20209;-74
2022/11/11 04:41:39;;;;;;;68.30;11.93;;;5.70;1.00;;;;;;5071741;28;20204;-74
2022/11/11 04:46:52;;;;;;;64.80;9.88;;;5.70;1.00;;;;;;5071706;28;20207;-74
2022/11/11 04:49:19;;;;;;;67.07;10.18;;;6.30;1.00;;;;;;5070746;28;20227;-74
2022/11/11 04:56:46;;;;;;;66.90;10.45;;;6.70;1.00;;;;;;5071550;28;20247;-74
2022/11/11 04:57:16;;;;;;;67.85;10.95;;;6.80;1.00;;;;;;5071441;28;20229;-74
2022/11/11 04:59:43;;;;;;;66.23;10.87;;;6.80;1.00;;;;;;5070963;28;20197;-74
2022/11/11 05:04:55;;;;;;;67.10;11.10;;;6.90;1.00;;;;;;5071334;28;20684;-74
2022/11/11 05:10:08;;;;;;;66.78;10.60;;;6.80;1.00;;;;;;5070757;28;20208;-74
2022/11/11 05:12:34;;;;;;;67.07;10.55;;;6.80;1.00;;;;;;5071513;28;20201;-74
2022/11/11 05:23:21;;;;;;;70.32;11.15;;;6.80;1.00;;;;;;5071095;28;20335;-74
2022/11/11 05:25:47;;;;;;;69.57;10.27;;;6.80;1.00;;;;;;5071128;28;20707;-74
2022/11/11 05:28:13;;;;;;;65.73;11.17;;;6.70;1.00;;;;;;5071365;28;20229;-74
2022/11/11 05:30:40;;;;;;;68.32;11.05;;;6.70;1.00;;;;;;5074109;28;20208;-74
2022/11/11 05:33:08;;;;;;;66.93;10.88;;;6.70;1.00;;;;;;5075096;28;20237;-75
2022/11/11 05:35:35;;;;;;;66.15;10.18;;;6.80;1.00;;;;;;5074898;28;20255;-74
2022/11/11 05:38:20;;;;;;;68.97;11.70;;;6.80;1.00;;;;;;5074710;28;20748;-74
2022/11/11 05:40:47;;;;;;;68.82;11.73;;;6.80;1.00;;;;;;5074348;28;20564;-74
2022/11/11 05:43:14;;;;;;;72.10;11.02;;;6.70;1.00;;;;;;5074956;28;20209;-74
2022/11/11 05:45:42;;;;;;;67.65;11.35;;;6.70;1.00;;;;;;5074914;28;20208;-74
2022/11/11 05:48:10;;;;;;;69.97;12.65;;;6.30;1.00;;;;;;5074614;28;20228;-74
2022/11/11 05:50:40;;;;;;;68.97;12.13;;;5.70;1.00;;;;;;5073954;28;20587;-74
2022/11/11 05:53:07;;;;;;;67.18;11.20;;;5.70;1.00;;;;;;5074834;28;20288;-73
2022/11/11 05:55:34;;;;;;;67.93;11.88;;;5.90;1.00;;;;;;5074694;28;20233;-74
2022/11/11 05:58:01;;;;;;;66.72;10.57;;;5.90;1.00;;;;;;5074535;28;20236;-74
2022/11/11 06:00:27;;;;;;;68.05;11.73;;;5.90;1.00;;;;;;5073768;28;20746;-74
2022/11/11 06:02:54;;;;;;;68.07;12.30;;;6.00;1.00;;;;;;5074539;28;20578;-74
2022/11/11 06:05:22;;;;;;;71.13;12.60;;;6.00;1.00;;;;;;5074355;28;20203;-73
2022/11/11 06:07:53;;;;;;;70.00;12.30;;;5.80;1.00;;;;;;5074592;28;20604;-74
2022/11/11 06:10:32;;;;;;;68.32;12.63;;;5.20;1.00;;;;;;5073662;28;20296;-74
2022/11/11 06:13:04;;;;;;;71.05;12.20;;;5.30;1.00;;;;;;5074429;28;20205;-74
2022/11/11 06:15:32;;;;;;;80.28;13.68;;;5.10;1.00;;;;;;5074166;28;20228;-74
2022/11/11 06:17:59;;;;;;;73.50;13.85;;;5.10;1.00;;;;;;5074277;28;20233;-73
2022/11/11 06:20:28;;;;;;;68.75;12.93;;;4.80;1.00;;;;;;5073644;28;20216;-74
2022/11/11 06:22:58;;;;;;;74.82;12.85;;;4.60;1.00;;;;;;5074108;28;20213;-74
2022/11/11 06:28:09;;;;;;;72.88;13.43;;;4.90;1.00;;;;;;5073873;28;20277;-74
2022/11/11 06:30:36;;;;;;;69.43;12.98;;;5.10;1.00;;;;;;5073183;28;20205;-74
2022/11/11 06:33:03;;;;;;;69.32;11.98;;;5.40;1.00;;;;;;5074101;28;20669;-74
2022/11/11 06:35:31;;;;;;;68.45;11.88;;;5.40;1.00;;;;;;5074142;28;20229;-74
2022/11/11 06:37:58;;;;;;;69.65;12.27;;;5.70;1.00;;;;;;5073788;28;20221;-74
2022/11/11 06:40:25;;;;;;;68.72;11.65;;;5.70;1.00;;;;;;5072725;28;20227;-74
2022/11/11 06:42:52;;;;;;;69.32;12.40;;;5.80;1.00;;;;;;5073638;28;20232;-73
2022/11/11 06:45:18;;;;;;;69.43;11.57;;;5.90;1.00;;;;;;5073874;28;20205;-74
2022/11/11 06:47:45;;;;;;;71.32;12.48;;;5.70;1.00;;;;;;5073673;28;20601;-74
2022/11/11 06:50:12;;;;;;;69.07;11.88;;;5.60;1.00;;;;;;5072834;28;20201;-74
2022/11/11 06:52:40;;;;;;;70.75;12.45;;;5.70;1.00;;;;;;5073334;28;20576;-75
2022/11/11 06:55:08;;;;;;;70.93;12.80;;;5.70;1.00;;;;;;5073445;28;20232;-74
2022/11/11 06:57:35;;;;;;;69.68;13.35;;;5.60;1.00;;;;;;5073362;28;20240;-74
2022/11/11 07:00:01;;;;;;;69.32;12.07;;;5.40;1.00;;;;;;5072841;28;20237;-74
2022/11/11 07:02:28;;;;;;;69.25;11.95;;;5.20;1.00;;;;;;5073317;28;20810;-75
2022/11/11 07:04:55;;;;;;;69.72;12.43;;;5.40;1.00;;;;;;5073372;28;20207;-75
2022/11/11 07:07:22;;;;;;;69.53;12.20;;;5.40;1.00;;;;;;5073179;28;20231;-74
2022/11/11 07:09:50;;;;;;;71.80;12.55;;;5.50;1.00;;;;;;5072890;28;20201;-75
2022/11/11 07:12:17;;;;;;;67.95;12.18;;;5.30;1.00;;;;;;5073046;28;20215;-74
2022/11/11 07:14:44;;;;;;;67.05;11.45;;;5.30;1.00;;;;;;5073165;28;20221;-74
2022/11/11 07:17:11;;;;;;;69.65;11.88;;;5.70;1.00;;;;;;5073029;28;20205;-74
2022/11/11 07:19:38;;;;;;;68.85;12.82;;;5.30;1.00;;;;;;5072165;28;20695;-75
2022/11/11 07:22:05;;;;;;;68.43;12.40;;;5.30;1.00;;;;;;5072956;28;20243;-74
2022/11/11 07:24:32;;;;;;;67.40;11.35;;;5.40;1.00;;;;;;5072792;28;20200;-74
2022/11/11 07:27:00;;;;;;;67.72;11.85;;;5.60;1.00;;;;;;5073015;28;20684;-74
2022/11/11 07:29:28;;;;;;;71.85;11.93;;;5.80;1.00;;;;;;5072187;28;20633;-74
2022/11/11 07:31:55;;;;;;;70.00;11.65;;;5.90;1.00;;;;;;5072857;28;20212;-74
2022/11/11 07:34:21;;;;;;;68.20;11.13;;;5.80;1.00;;;;;;5072600;28;20705;-74
2022/11/11 07:36:48;;;;;;;68.97;12.15;;;6.00;1.00;;;;;;5072708;28;20237;-74
2022/11/11 07:39:15;;;;;;;72.97;12.68;;;6.10;1.00;;;;;;5071600;28;20225;-74
2022/11/11 07:41:42;;;;;;;68.95;12.23;;;5.90;1.00;;;;;;5072913;28;20230;-74
2022/11/11 07:44:10;;;;;;;67.63;11.63;;;5.80;1.00;;;;;;5072717;28;20207;-74
2022/11/11 07:46:37;;;;;;;66.95;11.80;;;5.80;1.00;;;;;;5072577;28;20586;-74
2022/11/11 07:49:03;;;;;;;68.72;12.57;;;6.40;1.00;;;;;;5071660;28;20221;-74
2022/11/11 07:51:30;;;;;;;73.68;12.50;;;6.60;1.00;;;;;;5072363;28;20216;-74
2022/11/11 07:53:57;;;;;;;66.97;11.00;;;6.20;1.00;;;;;;5071707;28;20576;-74
2022/11/11 07:56:24;;;;;;;67.75;12.50;;;6.10;1.00;;;;;;5072205;28;20312;-73
2022/11/11 07:58:51;;;;;;;69.93;11.98;;;6.40;1.00;;;;;;5071525;28;20227;-73
2022/11/11 08:01:19;;;;;;;67.78;11.80;;;6.50;1.00;;;;;;5072121;28;20700;-74
2022/11/11 08:03:49;;;;;;;68.57;12.00;;;6.60;1.00;;;;;;5072182;28;20220;-73
2022/11/11 08:06:16;;;;;;;68.47;11.55;;;7.10;1.00;;;;;;5072053;28;20197;-74
2022/11/11 08:08:43;;;;;;;70.28;11.77;;;7.40;1.00;;;;;;5071014;28;20217;-75
2022/11/11 08:11:10;;;;;;;71.50;11.48;;;7.30;1.00;;;;;;5066269;28;20299;-74
2022/11/11 08:13:42;;;;;;;68.65;11.38;;;7.10;1.00;;;;;;5072436;28;20212;-74
2022/11/11 08:16:12;;;;;;;73.05;12.57;;;7.20;1.00;;;;;;5071989;28;20247;-74
2022/11/11 08:18:40;;;;;;;65.93;10.55;;;7.40;1.00;;;;;;5071069;28;20225;-73
2022/11/11 08:21:07;;;;;;;68.20;10.93;;;7.80;1.00;;;;;;5071867;28;20212;-74
2022/11/11 08:23:34;;;;;;;71.45;10.95;;;7.50;1.00;;;;;;5071896;28;20214;-73
2022/11/11 08:26:02;;;;;;;67.35;10.07;;;7.80;1.00;;;;;;5071887;28;20205;-74
2022/11/11 08:28:30;;;;;;;66.75;10.65;;;8.00;1.00;;;;;;5071451;28;20233;-72
2022/11/11 08:30:59;;;;;;;68.67;10.57;;;8.20;1.00;;;;;;5071578;28;20205;-73
2022/11/11 08:33:26;;;;;;;68.55;11.23;;;8.10;1.00;;;;;;5071756;28;20457;-72
2022/11/11 08:35:58;;;;;;;68.33;11.00;;;8.00;1.00;;;;;;5071926;28;20233;-73
2022/11/11 08:38:25;;;;;;;64.80;10.73;;;8.50;1.00;;;;;;5071819;28;20470;-73
2022/11/11 08:40:52;;;;;;;67.93;11.60;;;9.30;1.00;;;;;;5071063;28;20457;-73
2022/11/11 08:43:19;;;;;;;69.00;10.33;;;9.60;1.00;;;;;;5071722;28;20461;-73
2022/11/11 08:45:46;;;;;;;64.97;9.40;;;9.30;1.00;;;;;;5067492;28;20446;-75
2022/11/11 08:48:13;;;;;;;65.10;9.73;;;9.00;1.00;;;;;;5053066;28;20467;-73
2022/11/11 08:50:41;;;;;;;67.10;9.67;;;9.00;1.00;;;;;;5052434;28;20533;-74
2022/11/11 08:53:10;;;;;;;67.20;10.47;;;9.50;1.00;;;;;;5051292;28;20450;-74
2022/11/11 08:55:37;;;;;;;67.60;9.27;;;9.60;1.00;;;;;;5051422;28;20482;-75
2022/11/11 08:58:06;;;;;;;66.00;9.90;;;9.90;1.00;;;;;;5051302;28;20481;-74
2022/11/11 09:00:33;;;;;;;67.10;11.60;;;10.20;1.00;;;;;;5050706;28;20449;-75
2022/11/11 09:03:00;;;;;;;69.50;12.07;;;10.60;1.00;;;;;;5051469;28;21001;-74
2022/11/11 09:05:27;;;;;;;73.43;13.80;;;11.10;1.00;;;;;;5054897;28;20485;-75
2022/11/11 09:07:54;;;;;;;65.50;9.63;;;11.40;1.00;;;;;;5055546;28;21018;-74
2022/11/11 09:10:23;;;;;;;65.30;9.63;;;11.70;1.00;;;;;;5054825;28;20477;-75
2022/11/11 09:12:55;;;;;;;67.37;10.17;;;11.90;1.00;;;;;;5055302;28;20457;-73
2022/11/11 09:15:22;;;;;;;69.77;14.47;;;12.20;1.00;;;;;;5055529;28;20498;-73
2022/11/11 09:17:48;;;;;;;69.53;10.50;;;12.30;1.00;;;;;;5055211;28;20473;-72
2022/11/11 09:20:15;;;;;;;67.13;9.37;;;12.20;1.00;;;;;;5054677;28;20522;-75
2022/11/11 09:22:43;;;;;;;66.50;9.47;;;11.30;1.00;;;;;;5055269;28;20456;-75
2022/11/11 09:25:10;;;;;;;66.87;8.50;;;11.70;1.00;;;;;;5055202;28;20498;-75
2022/11/11 09:27:38;;;;;;;65.27;8.70;;;11.70;1.00;;;;;;5055249;28;20470;-74
2022/11/11 09:30:06;;;;;;;64.00;7.77;;;12.10;1.00;;;;;;5054422;28;20483;-73
2022/11/11 09:32:33;;;;;;;64.03;8.13;;;12.90;1.00;;;;;;5055178;28;20879;-73
2022/11/11 09:35:00;;;;;;;63.27;7.90;;;13.50;1.00;;;;;;5055039;28;20484;-72
2022/11/11 09:37:27;;;;;;;65.43;7.20;;;;;;;;;;5054950;28;20992;-73
2022/11/11 09:39:54;;;;;;;64.40;7.40;;;16.20;1.00;;;;;;5054089;28;20538;-75
2022/11/11 09:42:36;;;;;;;62.80;6.97;;;15.90;1.00;;;;;;5055179;28;20452;-75
2022/11/11 09:45:16;;;;;;;62.87;6.13;;;15.40;1.00;;;;;;5054978;28;20546;-73
2022/11/11 09:47:53;;;;;;;64.20;6.90;;;15.50;1.00;;;;;;5054856;28;20564;-74
2022/11/11 09:50:24;;;;;;;67.03;7.33;;;15.70;1.00;;;;;;5053982;28;20452;-75
2022/11/11 09:52:59;;;;;;;66.47;6.93;;;16.30;99.90;;;;;;5054696;28;20459;-75
2022/11/11 09:55:31;;;;;;;61.63;6.50;;;16.40;99.90;;;;;;5054771;28;20480;-75
2022/11/11 09:58:01;;;;;;;64.20;6.67;;;16.10;99.90;;;;;;5054478;28;20474;-75
2022/11/11 10:00:32;;;;;;;64.20;6.17;;;16.20;99.90;;;;;;5053901;28;21012;-75
2022/11/11 10:03:06;;;;;;;62.87;6.53;;;16.80;99.90;;;;;;5054949;28;20468;-75
2022/11/11 10:05:39;;;;;;;65.60;6.40;;;15.90;99.90;;;;;;5054702;28;20535;-73
2022/11/11 10:08:11;;;;;;;62.37;6.07;;;14.80;99.90;;;;;;5054554;28;20480;-73
2022/11/11 10:10:43;;;;;;;62.53;6.67;;;14.30;99.90;;;;;;5053755;28;20828;-73
2022/11/11 10:13:14;;;;;;;62.10;6.83;;;15.20;99.90;;;;;;5054214;28;20498;-73
2022/11/11 10:15:52;;;;;;;61.30;5.93;;;15.90;99.90;;;;;;5053427;28;20488;-74
2022/11/11 10:18:34;;;;;;;63.17;6.90;;;16.80;99.90;;;;;;5054223;28;20486;-74
2022/11/11 10:21:05;;;;;;;61.60;6.17;;;18.10;99.90;;;;;;5054283;28;20448;-73
2022/11/11 10:23:35;;;;;;;62.07;6.37;;;19.60;99.90;;;;;;5054098;28;20845;-73
2022/11/11 10:26:07;;;;;;;63.40;6.37;;;20.10;99.90;;;;;;5054049;28;20449;-73
2022/11/11 10:28:37;;;;;;;63.03;5.80;;;22.00;99.90;;;;;;5053120;28;21065;-73
2022/11/11 10:31:13;;;;;;;60.57;5.80;;;22.00;99.90;;;;;;5054145;28;20451;-74
2022/11/11 10:33:46;;;;;;;60.87;5.50;;;21.70;99.90;;;;;;5072242;28;20481;-74
2022/11/11 10:36:17;;;;;;;68.20;6.60;;;22.60;99.90;;;;;;5074277;28;20486;-74
2022/11/11 10:38:49;;;;;;;60.37;5.80;;;23.40;99.90;;;;;;5062160;28;20468;-74
2022/11/11 10:41:21;;;;;;;64.53;6.03;;;23.00;99.90;;;;;;5053948;28;20454;-74
2022/11/11 10:43:48;;;;;;;62.40;5.70;;;23.10;99.90;;;;;;5054119;28;20452;-74
2022/11/11 10:46:21;;;;;;;60.97;5.50;;;22.70;99.90;;;;;;5053623;28;20449;-74
2022/11/11 10:48:53;;;;;;;61.37;5.40;;;22.50;99.90;;;;;;5052764;28;20849;-75
2022/11/11 10:51:21;;;;;;;60.90;5.73;;;23.00;99.90;;;;;;5053615;28;20453;-74
2022/11/11 10:53:57;;;;;;;61.03;5.60;;;23.50;99.90;;;;;;5053645;28;20835;-74
2022/11/11 10:56:30;;;;;;;60.70;5.00;;;23.10;99.90;;;;;;5053350;28;20492;-74
2022/11/11 10:59:01;;;;;;;62.13;5.53;;;23.10;99.90;;;;;;5052687;28;20549;-74
2022/11/11 11:01:35;;;;;;;64.07;5.90;;;22.40;99.90;;;;;;5053415;28;20937;-74
2022/11/11 11:04:06;;;;;;;63.17;5.10;;;23.50;99.90;;;;;;5053555;28;20444;-74
2022/11/11 11:06:37;;;;;;;61.70;5.00;;;24.40;99.90;;;;;;5053284;28;20446;-74
2022/11/11 11:09:12;;;;;;;59.93;4.80;;;25.90;99.90;;;;;;5052502;28;20472;-74
2022/11/11 11:11:44;;;;;;;60.00;5.00;;;27.00;99.90;;;;;;5053079;28;20440;-73
2022/11/11 11:14:16;;;;;;;61.47;5.63;;;25.10;99.90;;;;;;5053181;28;20452;-74
2022/11/11 11:16:50;;;;;;;60.80;5.00;;;24.00;99.90;;;;;;5053070;28;20488;-73
2022/11/11 11:19:19;;;;;;;60.60;5.37;;;22.40;99.90;;;;;;5052316;28;20472;-73
2022/11/11 11:21:52;;;;;;;62.50;5.37;;;20.30;99.90;;;;;;5052941;28;20445;-74
2022/11/11 11:24:20;;;;;;;61.63;5.90;;;19.50;99.90;;;;;;5052974;28;20945;-74
2022/11/11 11:26:50;;;;;;;64.37;8.10;;;19.70;99.90;;;;;;5052661;28;20454;-74
2022/11/11 11:29:25;;;;;;;62.27;7.40;;;20.70;99.90;;;;;;5052181;28;20480;-75
2022/11/11 11:31:54;;;;;;;63.00;6.67;;;21.80;99.90;;;;;;5052976;28;20460;-74
2022/11/11 11:34:23;;;;;;;60.37;5.77;;;21.80;99.90;;;;;;5053322;28;20495;-73
2022/11/11 11:37:00;;;;;;;61.17;5.83;;;23.50;99.90;;;;;;5052857;28;20488;-74
2022/11/11 11:39:35;;;;;;;64.50;5.80;;;24.40;99.90;;;;;;5052096;28;20458;-74
2022/11/11 11:42:01;;;;;;;61.80;5.23;;;24.90;99.90;;;;;;5052524;28;20462;-74
2022/11/11 11:44:30;;;;;;;61.20;5.13;;;24.70;99.90;;;;;;5052649;28;20831;-74
2022/11/11 11:47:09;;;;;;;64.00;4.80;;;24.90;99.90;;;;;;5052482;28;20451;-74
2022/11/11 11:49:57;;;;;;;61.67;4.90;;;25.10;99.90;;;;;;5052131;28;20456;-74
2022/11/11 11:52:33;;;;;;;62.70;5.10;;;27.00;99.90;;;;;;5052239;28;20458;-74
2022/11/11 11:55:07;;;;;;;60.20;4.30;;;28.60;99.90;;;;;;5053018;28;20452;-74
2022/11/11 11:57:46;;;;;;;59.80;4.50;;;28.50;99.90;;;;;;5052398;28;20492;-75
2022/11/11 12:00:18;;;;;;;61.97;4.70;;;29.40;99.90;;;;;;5051784;28;20444;-74
2022/11/11 12:03:08;;;;;;;59.47;4.10;;;28.50;99.90;;;;;;5052540;28;20448;-74
2022/11/11 12:05:40;;;;;;;59.50;4.30;;;29.00;99.90;;;;;;5052318;28;20444;-75
2022/11/11 12:08:24;;;;;;;60.60;4.43;;;28.60;99.90;;;;;;5052403;28;20472;-75
2022/11/11 12:10:57;;;;;;;59.33;4.40;;;31.30;99.90;;;;;;5051676;28;20978;-75
2022/11/11 12:13:38;;;;;;;64.67;4.33;;;31.00;99.90;;;;;;5052468;28;20448;-75
2022/11/11 12:16:19;;;;;;;58.73;3.93;;;29.60;99.90;;;;;;5052199;28;20486;-74
2022/11/11 12:19:07;;;;;;;60.87;5.50;;;27.60;99.90;;;;;;5051373;28;20468;-74
2022/11/11 12:21:40;;;;;;;60.00;4.20;;;26.90;99.90;;;;;;5072176;28;20452;-74
2022/11/11 12:24:17;;;;;;;65.70;6.10;;;27.10;99.90;;;;;;5071996;28;20447;-74
2022/11/11 12:26:53;;;;;;;59.83;4.87;;;26.00;99.90;;;;;;5071766;28;20443;-74
2022/11/11 12:29:32;;;;;;;66.17;5.60;;;24.50;99.90;;;;;;5071056;28;20462;-74
2022/11/11 12:32:22;;;;;;;64.03;4.93;;;24.50;99.90;;;;;;5072022;28;20862;-75
2022/11/11 12:35:14;;;;;;;60.63;4.60;;;25.60;99.90;;;;;;5071717;28;20952;-74
2022/11/11 12:37:48;;;;;;;59.60;3.93;;;26.70;99.90;;;;;;5071539;28;20494;-75
2022/11/11 12:40:23;;;;;;;60.60;4.47;;;27.70;99.90;;;;;;5070340;28;20903;-75
2022/11/11 12:43:02;;;;;;;59.90;4.40;;;28.00;99.90;;;;;;5071830;28;20465;-75
2022/11/11 12:45:39;;;;;;;61.43;4.80;;;27.60;99.90;;;;;;5071798;28;20463;-74
2022/11/11 12:48:20;;;;;;;59.60;4.60;;;27.70;99.90;;;;;;5071705;28;20471;-74
2022/11/11 12:50:54;;;;;;;62.80;4.53;;;27.90;99.90;;;;;;5071459;28;21180;-75
2022/11/11 12:53:33;;;;;;;60.17;4.67;;;28.80;99.90;;;;;;5071672;28;20876;-75
2022/11/11 12:56:09;;;;;;;60.00;4.33;;;28.60;99.90;;;;;;5071404;28;21044;-73
2022/11/11 12:58:44;;;;;;;61.17;4.70;;;27.70;99.90;;;;;;5070925;28;20463;-75
2022/11/11 13:01:20;;;;;;;60.10;4.30;;;26.50;99.90;;;;;;5071485;28;20447;-74
2022/11/11 13:04:09;;;;;;;63.00;7.80;;;25.60;99.90;;;;;;5071607;28;20459;-74
2022/11/11 13:06:52;;;;;;;59.17;4.23;;;24.50;99.90;;;;;;5071754;28;20824;-73
2022/11/11 13:09:42;;;;;;;59.57;4.20;;;24.10;99.90;;;;;;5070721;28;20479;-75
2022/11/11 13:12:17;;;;;;;61.83;4.67;;;24.40;99.90;;;;;;5071491;28;20542;-75
2022/11/11 13:14:54;;;;;;;60.73;4.20;;;25.00;99.90;;;;;;5071397;28;20447;-75
2022/11/11 13:17:21;;;;;;;59.30;3.73;;;25.60;99.90;;;;;;5071229;28;20489;-75
2022/11/11 13:19:54;;;;;;;58.97;3.73;;;27.00;99.90;;;;;;5070589;28;20448;-75
2022/11/11 13:22:25;;;;;;;60.30;4.40;;;28.00;99.90;;;;;;5071345;28;20459;-75
2022/11/11 13:24:54;;;;;;;61.50;4.57;;;29.70;99.90;;;;;;5071339;28;20713;-75
2022/11/11 13:27:29;;;;;;;60.70;4.00;;;30.10;99.90;;;;;;5071551;28;20473;-75
2022/11/11 13:30:26;;;;;;;59.90;4.47;;;29.50;99.90;;;;;;5071050;28;20451;-75
2022/11/11 13:32:59;;;;;;;61.57;4.20;;;29.70;99.90;;;;;;5071391;28;20456;-75
2022/11/11 13:35:30;;;;;;;59.40;4.50;;;30.00;99.90;;;;;;5071337;28;20452;-75
2022/11/11 13:37:59;;;;;;;58.80;3.70;;;30.00;99.90;;;;;;5071168;28;20497;-75
2022/11/11 13:40:37;;;;;;;59.37;3.80;;;30.00;99.90;;;;;;5070820;28;20845;-75
2022/11/11 13:43:05;;;;;;;59.37;5.10;;;29.70;99.90;;;;;;5071227;28;20454;-75
2022/11/11 13:45:37;;;;;;;62.27;3.80;;;29.30;99.90;;;;;;5071070;28;20459;-75
2022/11/11 13:48:05;;;;;;;59.37;4.07;;;29.40;99.90;;;;;;5070905;28;20557;-75
2022/11/11 13:50:36;;;;;;;60.70;3.60;;;29.50;99.90;;;;;;5072070;28;20457;-75
2022/11/11 13:53:05;;;;;;;61.17;3.90;;;29.60;99.90;;;;;;5074799;28;20447;-75
2022/11/11 13:55:35;;;;;;;59.50;4.30;;;29.60;99.90;;;;;;5074686;28;20455;-75
2022/11/11 13:58:04;;;;;;;58.77;4.20;;;29.70;99.90;;;;;;5074363;28;20497;-75
2022/11/11 14:00:35;;;;;;;61.40;4.30;;;29.70;99.90;;;;;;5073706;28;20452;-75
2022/11/11 14:03:32;;;;;;;58.70;4.10;;;29.80;99.90;;;;;;5074626;28;20799;-74
2022/11/11 14:06:36;;;;;;;59.10;3.50;;;30.10;99.90;;;;;;5074429;28;21176;-75
2022/11/11 14:09:04;;;;;;;59.30;4.10;;;30.40;99.90;;;;;;5073765;28;20467;-75
2022/11/11 14:11:34;;;;;;;59.70;4.10;;;30.30;99.90;;;;;;5074464;28;20458;-75
2022/11/11 14:14:39;;;;;;;58.63;3.90;;;30.00;99.90;;;;;;5074322;28;20900;-75
2022/11/11 14:17:14;;;;;;;61.20;4.23;;;29.70;99.90;;;;;;5073811;28;20863;-75
2022/11/11 14:19:41;;;;;;;62.00;4.20;;;29.60;99.90;;;;;;5073534;28;20864;-75